South Quincy, Massachusetts
Current Conditions -  °F | °C
As of 6:54 PM on Saturday 20 Dec 2014 (Local Time) from KBOS Reporting Station
Light Snow Light Snow  
Wind Chill: 27°   Ceiling: 2600
Heat Index: 34°   Visibility: 8mi
Dew Point: 30°   Wind: 8mph
Humidity: 85%   Direction: 360°N
Pressure: 30.3"   Gusts: NA
Location:  42.2468°N, 71.0071°W
Report Text: KBOS 202354Z 36007KT 8SM -SN FEW012 BKN026 OVC040 01/M01 A3030 RMK AO2 SLP261 P0000 60000 T00111011 10011 20006 53009
Loading
Personal Weather Stations






























Interactive Weather Map New forecast layout! Learn more

10-Day Weather Forecast

Advertisements
Track Severe Weather on mobile